createdAt,value
2022-08-03T00:00:24.383Z,62.83
2022-08-03T00:02:50.982Z,63.36
2022-08-03T00:05:18.518Z,63.69
2022-08-03T00:07:45.004Z,63.72
2022-08-03T00:10:12.609Z,64.14
2022-08-03T00:12:40.042Z,64.32
2022-08-03T00:15:08.319Z,64.03
2022-08-03T00:17:52.472Z,63.95
2022-08-03T00:20:21.439Z,63.81
2022-08-03T00:22:48.932Z,63.77
2022-08-03T00:25:16.335Z,64.46
2022-08-03T00:27:43.727Z,64.07
2022-08-03T00:30:11.164Z,64.42
2022-08-03T00:32:38.880Z,63.57
2022-08-03T00:35:25.985Z,63.77
2022-08-03T00:38:00.095Z,64.26
2022-08-03T00:40:26.627Z,63.62
2022-08-03T00:42:53.117Z,63.80
2022-08-03T00:45:19.606Z,63.22
2022-08-03T00:47:47.001Z,62.98
2022-08-03T00:50:14.463Z,64.42
2022-08-03T00:52:40.956Z,64.90
2022-08-03T00:55:07.493Z,65.09
2022-08-03T00:57:34.895Z,64.92
2022-08-03T01:00:01.384Z,64.58
2022-08-03T01:02:28.800Z,64.66
2022-08-03T01:04:56.228Z,63.97
2022-08-03T01:07:23.629Z,63.14
2022-08-03T01:09:51.035Z,63.05
2022-08-03T01:12:18.537Z,62.87
2022-08-03T01:14:46.010Z,63.44
2022-08-03T01:17:12.546Z,64.01
2022-08-03T01:19:39.062Z,63.90
2022-08-03T01:22:05.564Z,64.51
2022-08-03T01:24:32.060Z,63.69
2022-08-03T01:26:59.474Z,63.63
2022-08-03T01:29:29.332Z,64.06
2022-08-03T01:33:00.969Z,64.10
2022-08-03T01:34:43.233Z,63.95
2022-08-03T01:37:09.732Z,63.16
2022-08-03T01:39:36.231Z,63.91
2022-08-03T01:42:02.685Z,64.12
2022-08-03T01:44:31.030Z,64.07
2022-08-03T01:46:58.525Z,63.51
2022-08-03T01:49:25.111Z,64.11
2022-08-03T01:51:58.444Z,64.83
2022-08-03T01:54:31.262Z,65.01
2022-08-03T01:56:57.752Z,64.57
2022-08-03T01:59:24.246Z,64.87
2022-08-03T02:02:16.033Z,65.20
2022-08-03T02:04:37.196Z,66.43
2022-08-03T02:07:03.714Z,66.32
2022-08-03T02:09:30.207Z,66.91
2022-08-03T02:11:57.606Z,67.11
2022-08-03T02:14:24.075Z,67.20
2022-08-03T02:16:50.544Z,66.93
2022-08-03T02:19:17.951Z,66.17
2022-08-03T02:21:56.927Z,65.65
2022-08-03T02:24:27.692Z,64.55
2022-08-03T02:26:54.201Z,64.92
2022-08-03T02:29:21.610Z,65.05
2022-08-03T02:32:06.962Z,64.87
2022-08-03T02:34:33.443Z,65.16
2022-08-03T02:36:59.915Z,64.89
2022-08-03T02:39:27.298Z,64.69
2022-08-03T02:41:53.775Z,65.23
2022-08-03T02:44:20.686Z,65.51
2022-08-03T02:46:47.184Z,65.41
2022-08-03T02:49:42.055Z,65.74
2022-08-03T02:52:01.053Z,66.17
2022-08-03T02:54:27.538Z,65.68
2022-08-03T02:56:55.761Z,65.64
2022-08-03T02:59:22.255Z,66.05
2022-08-03T03:01:49.640Z,66.69
2022-08-03T03:04:17.048Z,67.30
2022-08-03T03:06:43.531Z,67.18
2022-08-03T03:09:14.333Z,67.67
2022-08-03T03:11:41.757Z,67.30
2022-08-03T03:14:08.778Z,67.03
2022-08-03T03:16:35.293Z,66.04
2022-08-03T03:19:01.806Z,66.23
2022-08-03T03:21:29.228Z,66.41
2022-08-03T03:23:55.708Z,66.25
2022-08-03T03:26:22.200Z,66.26
2022-08-03T03:28:48.728Z,65.96
2022-08-03T03:31:16.129Z,66.19
2022-08-03T03:33:42.613Z,66.53
2022-08-03T03:36:10.039Z,66.26
2022-08-03T03:38:36.526Z,66.63
2022-08-03T03:41:03.960Z,66.46
2022-08-03T03:43:30.460Z,66.31
2022-08-03T03:45:56.961Z,66.46
2022-08-03T03:48:24.580Z,66.21
2022-08-03T03:50:51.075Z,66.53
2022-08-03T03:53:17.592Z,65.74
2022-08-03T03:55:59.237Z,65.22
2022-08-03T03:58:29.296Z,65.24
2022-08-03T04:00:55.821Z,65.05
2022-08-03T04:03:23.293Z,65.19
2022-08-03T04:05:49.795Z,65.56
2022-08-03T04:08:16.261Z,65.40
2022-08-03T04:10:42.746Z,65.25
2022-08-03T04:13:10.184Z,65.41
2022-08-03T04:15:36.802Z,66.03
2022-08-03T04:18:03.293Z,66.02
2022-08-03T04:20:29.798Z,65.65
2022-08-03T04:22:56.280Z,66.05
2022-08-03T04:25:22.758Z,66.21
2022-08-03T04:28:28.293Z,66.46
2022-08-03T04:30:36.618Z,67.18
2022-08-03T04:33:04.060Z,67.48
2022-08-03T04:36:01.105Z,67.49
2022-08-03T04:38:18.855Z,67.46
2022-08-03T04:40:45.363Z,66.47
2022-08-03T04:43:12.778Z,65.89
2022-08-03T04:45:39.258Z,65.79
2022-08-03T04:48:05.759Z,65.25
2022-08-03T04:50:32.267Z,65.47
2022-08-03T04:52:58.749Z,65.17
2022-08-03T04:55:25.285Z,65.75
2022-08-03T04:57:51.776Z,65.22
2022-08-03T05:00:19.169Z,65.34
2022-08-03T05:02:46.599Z,65.72
2022-08-03T05:05:14.013Z,64.88
2022-08-03T05:07:40.511Z,64.99
2022-08-03T05:10:15.157Z,65.54
2022-08-03T05:12:42.698Z,64.94
2022-08-03T05:15:10.083Z,65.14
2022-08-03T05:17:36.605Z,65.04
2022-08-03T05:20:04.056Z,65.30
2022-08-03T05:22:31.492Z,65.33
2022-08-03T05:24:57.992Z,65.34
2022-08-03T05:27:24.487Z,64.89
2022-08-03T05:29:50.968Z,64.76
2022-08-03T05:32:18.595Z,65.05
2022-08-03T05:34:45.367Z,64.65
2022-08-03T05:37:12.847Z,64.74
2022-08-03T05:39:39.314Z,64.72
2022-08-03T05:42:05.823Z,64.72
2022-08-03T05:44:32.486Z,64.54
2022-08-03T05:46:59.002Z,64.50
2022-08-03T05:49:25.635Z,64.70
2022-08-03T05:52:08.219Z,64.26
2022-08-03T05:54:57.393Z,64.58
2022-08-03T05:57:24.231Z,64.47
2022-08-03T05:59:54.542Z,64.55
2022-08-03T06:02:24.591Z,64.39
2022-08-03T06:04:51.075Z,64.70
2022-08-03T06:07:18.490Z,64.35
2022-08-03T06:10:34.171Z,64.31
2022-08-03T06:12:32.355Z,64.15
2022-08-03T06:14:59.781Z,64.38
2022-08-03T06:17:26.769Z,64.58
2022-08-03T06:19:53.475Z,64.35
2022-08-03T06:22:19.953Z,64.11
2022-08-03T06:24:53.431Z,64.54
2022-08-03T06:27:21.241Z,64.40
2022-08-03T06:30:03.459Z,64.33
2022-08-03T06:32:29.949Z,64.06
2022-08-03T06:34:56.456Z,64.08
2022-08-03T06:37:22.929Z,64.13
2022-08-03T06:39:50.406Z,64.29
2022-08-03T06:42:18.123Z,64.79
2022-08-03T06:44:48.086Z,64.59
2022-08-03T06:47:15.522Z,64.47
2022-08-03T06:49:42.087Z,64.79
2022-08-03T06:52:08.627Z,64.68
2022-08-03T06:54:36.240Z,64.58
2022-08-03T07:00:10.656Z,64.84
2022-08-03T07:02:36.389Z,65.22
2022-08-03T07:05:02.913Z,65.03
2022-08-03T07:07:30.361Z,64.88
2022-08-03T07:09:58.274Z,64.56
2022-08-03T07:12:25.910Z,64.76
2022-08-03T07:14:56.668Z,64.85
2022-08-03T07:17:27.648Z,64.78
2022-08-03T07:19:54.153Z,64.76
2022-08-03T07:22:21.685Z,64.34
2022-08-03T07:24:48.180Z,64.46
2022-08-03T07:27:15.606Z,64.55
2022-08-03T07:29:42.110Z,64.46
2022-08-03T07:32:08.625Z,64.36
2022-08-03T07:34:36.087Z,64.05
2022-08-03T07:37:02.586Z,64.04
2022-08-03T07:39:29.152Z,64.38
2022-08-03T07:41:56.633Z,64.48
2022-08-03T07:44:23.154Z,64.53
2022-08-03T07:46:49.661Z,64.42
2022-08-03T07:49:16.191Z,63.88
2022-08-03T07:51:42.749Z,63.77
2022-08-03T07:54:09.245Z,64.03
2022-08-03T07:56:35.773Z,63.86
2022-08-03T07:59:02.253Z,63.88
2022-08-03T08:01:28.797Z,63.88
2022-08-03T08:03:56.295Z,63.65
2022-08-03T08:06:22.775Z,63.84
2022-08-03T08:08:50.305Z,63.33
2022-08-03T08:11:16.822Z,63.44
2022-08-03T08:13:43.363Z,63.31
2022-08-03T08:16:10.817Z,63.55
2022-08-03T08:18:37.302Z,62.69
2022-08-03T08:21:03.802Z,62.37
2022-08-03T08:23:41.874Z,62.52
2022-08-03T08:26:09.604Z,61.58
2022-08-03T08:28:36.117Z,61.06
2022-08-03T08:31:03.629Z,61.71
2022-08-03T08:34:01.034Z,61.41
2022-08-03T08:36:18.497Z,60.90
2022-08-03T08:38:45.912Z,59.86
2022-08-03T08:41:12.416Z,60.08
2022-08-03T08:43:38.903Z,59.31
2022-08-03T08:46:05.369Z,58.58
2022-08-03T08:48:32.726Z,59.40
2022-08-03T08:50:59.213Z,58.80
2022-08-03T08:53:27.644Z,56.48
2022-08-03T08:55:57.955Z,56.18
2022-08-03T08:58:27.545Z,56.12
2022-08-03T09:00:54.038Z,57.19
2022-08-03T09:03:22.642Z,58.48
2022-08-03T09:05:57.212Z,58.69
2022-08-03T09:08:24.657Z,59.05
2022-08-03T09:10:52.044Z,58.97
2022-08-03T09:13:18.516Z,58.12
2022-08-03T09:16:00.592Z,57.74
2022-08-03T09:18:29.309Z,58.26
2022-08-03T09:21:03.820Z,58.05
2022-08-03T09:24:01.457Z,58.28
2022-08-03T09:26:29.970Z,59.10
2022-08-03T09:29:04.648Z,58.99
2022-08-03T09:31:33.544Z,59.03
2022-08-03T09:34:00.017Z,57.90
2022-08-03T09:36:26.488Z,58.17
2022-08-03T09:38:52.952Z,57.18
2022-08-03T09:41:19.425Z,55.68
2022-08-03T09:43:46.810Z,56.06
2022-08-03T09:46:14.208Z,56.48
2022-08-03T09:48:41.580Z,56.79
2022-08-03T09:51:14.079Z,57.12
2022-08-03T09:53:59.007Z,58.53
2022-08-03T09:56:35.923Z,58.25
2022-08-03T09:59:03.453Z,57.92
2022-08-03T10:01:30.022Z,58.01
2022-08-03T10:04:04.450Z,57.82
2022-08-03T10:06:31.523Z,57.90
2022-08-03T10:08:58.896Z,58.40
2022-08-03T10:11:25.453Z,56.73
2022-08-03T10:13:58.110Z,57.57
2022-08-03T10:16:28.848Z,57.78
2022-08-03T10:18:56.252Z,57.42
2022-08-03T10:21:23.620Z,57.39
2022-08-03T10:23:51.003Z,57.55
2022-08-03T10:26:18.329Z,57.32
2022-08-03T10:28:45.826Z,57.20
2022-08-03T10:31:12.301Z,56.61
2022-08-03T10:33:51.887Z,55.11
2022-08-03T10:36:20.143Z,54.34
2022-08-03T10:38:47.518Z,55.70
2022-08-03T10:41:13.966Z,56.09
2022-08-03T10:43:40.437Z,56.22
2022-08-03T10:46:07.832Z,55.49
2022-08-03T10:48:35.248Z,54.59
2022-08-03T10:51:02.607Z,53.93
2022-08-03T10:53:29.075Z,54.85
2022-08-03T10:55:56.980Z,54.81
2022-08-03T10:58:30.758Z,52.88
2022-08-03T11:00:57.480Z,52.45
2022-08-03T11:03:24.876Z,53.63
2022-08-03T11:05:52.246Z,54.68
2022-08-03T11:08:18.718Z,55.62
2022-08-03T11:10:45.156Z,55.17
2022-08-03T11:13:11.634Z,54.65
2022-08-03T11:15:43.252Z,55.25
2022-08-03T11:18:11.302Z,55.56
2022-08-03T11:20:37.961Z,55.32
2022-08-03T11:23:05.395Z,55.14
2022-08-03T11:25:53.048Z,55.11
2022-08-03T11:28:20.156Z,54.99
2022-08-03T11:30:46.768Z,54.03
2022-08-03T11:33:13.225Z,54.05
2022-08-03T11:35:40.617Z,54.90
2022-08-03T11:38:07.127Z,54.77
2022-08-03T11:40:33.650Z,55.05
2022-08-03T11:43:01.066Z,54.61
2022-08-03T11:45:27.543Z,55.00
2022-08-03T11:47:54.932Z,54.88
2022-08-03T11:50:21.607Z,54.48
2022-08-03T11:52:49.043Z,54.60
2022-08-03T11:55:15.521Z,54.14
2022-08-03T11:59:10.766Z,54.32
2022-08-03T12:00:28.482Z,55.01
2022-08-03T12:02:54.988Z,55.40
2022-08-03T12:05:22.468Z,53.25
2022-08-03T12:08:03.688Z,53.61
2022-08-03T12:10:33.451Z,53.15
2022-08-03T12:13:00.842Z,53.87
2022-08-03T12:15:27.280Z,52.99
2022-08-03T12:17:57.446Z,54.51
2022-08-03T12:20:31.420Z,53.34
2022-08-03T12:23:02.845Z,53.94
2022-08-03T12:25:39.505Z,54.23
2022-08-03T12:28:06.466Z,54.33
2022-08-03T12:30:52.922Z,54.54
2022-08-03T12:33:19.406Z,54.69
2022-08-03T12:35:52.146Z,52.60
2022-08-03T12:38:20.169Z,51.99
2022-08-03T12:40:46.654Z,53.92
2022-08-03T12:43:13.136Z,53.87
2022-08-03T12:45:39.642Z,53.18
2022-08-03T12:48:07.033Z,53.24
2022-08-03T12:50:33.518Z,53.79
2022-08-03T12:53:00.002Z,54.28
2022-08-03T12:55:26.508Z,54.31
2022-08-03T12:57:53.912Z,54.20
2022-08-03T13:00:28.850Z,54.74
2022-08-03T13:03:24.744Z,54.40
2022-08-03T13:05:44.516Z,54.52
2022-08-03T13:08:10.982Z,54.92
2022-08-03T13:10:38.967Z,54.21
2022-08-03T13:13:06.370Z,54.56
2022-08-03T13:15:38.696Z,54.68
2022-08-03T13:18:14.332Z,54.75
2022-08-03T13:20:44.770Z,55.20
2022-08-03T13:23:15.375Z,54.39
2022-08-03T13:25:55.391Z,54.83
2022-08-03T13:28:22.636Z,54.78
2022-08-03T13:30:49.106Z,54.65
2022-08-03T13:33:16.574Z,54.82
2022-08-03T13:35:42.962Z,54.71
2022-08-03T13:38:10.357Z,54.84
2022-08-03T13:40:41.463Z,54.67
2022-08-03T13:43:08.925Z,54.52
2022-08-03T13:45:36.290Z,54.21
2022-08-03T13:48:03.640Z,54.93
2022-08-03T13:50:30.108Z,54.77
2022-08-03T13:52:57.451Z,54.88
2022-08-03T13:55:23.922Z,54.25
2022-08-03T13:58:04.432Z,54.10
2022-08-03T14:00:34.265Z,54.28
2022-08-03T14:03:09.207Z,54.66
2022-08-03T14:05:40.293Z,54.60
2022-08-03T14:08:06.820Z,54.93
2022-08-03T14:10:34.153Z,54.38
2022-08-03T14:13:00.633Z,54.93
2022-08-03T14:15:27.146Z,54.90
2022-08-03T14:17:54.461Z,55.13
2022-08-03T14:20:37.475Z,55.43
2022-08-03T14:23:06.417Z,55.55
2022-08-03T14:25:50.479Z,55.04
2022-08-03T14:28:20.292Z,55.24
2022-08-03T14:30:47.614Z,54.92
2022-08-03T14:33:14.099Z,55.05
2022-08-03T14:35:41.496Z,55.17
2022-08-03T14:38:08.961Z,55.31
2022-08-03T14:40:35.421Z,55.18
2022-08-03T14:43:02.812Z,55.29
2022-08-03T14:45:29.245Z,55.50
2022-08-03T14:50:29.015Z,55.41
2022-08-03T14:50:48.513Z,55.17
2022-08-03T14:53:18.361Z,55.21
2022-08-03T14:55:50.419Z,55.24
2022-08-03T14:58:20.720Z,55.43
2022-08-03T15:00:48.697Z,55.37
2022-08-03T15:03:16.909Z,55.38
2022-08-03T15:05:43.629Z,55.30
2022-08-03T15:08:11.023Z,55.31
2022-08-03T15:10:43.840Z,55.18
2022-08-03T15:13:11.468Z,55.01
2022-08-03T15:15:38.886Z,55.30
2022-08-03T15:18:06.260Z,55.20
2022-08-03T15:20:43.808Z,55.41
2022-08-03T15:23:12.062Z,54.79
2022-08-03T15:26:29.394Z,53.72
2022-08-03T15:28:26.730Z,53.38
2022-08-03T15:30:53.989Z,53.86
2022-08-03T15:33:21.305Z,53.91
2022-08-03T15:35:47.920Z,54.37
2022-08-03T15:38:14.498Z,54.60
2022-08-03T15:40:41.798Z,53.87
2022-08-03T15:43:09.081Z,53.77
2022-08-03T15:45:36.898Z,53.84
2022-08-03T15:48:04.545Z,53.99
2022-08-03T15:50:30.990Z,54.39
2022-08-03T15:52:58.329Z,54.58
2022-08-03T15:55:25.687Z,54.69
2022-08-03T15:59:03.759Z,54.76
2022-08-03T16:00:38.645Z,54.52
2022-08-03T16:03:06.035Z,54.77
2022-08-03T16:05:32.468Z,55.01
2022-08-03T16:08:03.727Z,55.07
2022-08-03T16:10:31.076Z,54.84
2022-08-03T16:12:57.607Z,54.58
2022-08-03T16:15:24.042Z,54.92
2022-08-03T16:17:51.421Z,55.23
2022-08-03T16:20:30.738Z,55.37
2022-08-03T16:23:11.505Z,55.17
2022-08-03T16:25:39.878Z,55.14
2022-08-03T16:28:13.040Z,55.34
2022-08-03T16:30:40.183Z,54.87
2022-08-03T16:33:07.514Z,55.21
2022-08-03T16:35:34.887Z,55.38
2022-08-03T16:38:05.358Z,55.39
2022-08-03T16:40:35.284Z,55.47
2022-08-03T16:43:01.743Z,55.30
2022-08-03T16:45:28.200Z,55.29
2022-08-03T16:48:01.704Z,55.56
2022-08-03T16:50:33.163Z,54.93
2022-08-03T16:53:00.564Z,54.78
2022-08-03T16:55:43.553Z,54.63
2022-08-03T16:58:14.471Z,54.89
2022-08-03T17:00:42.235Z,54.28
2022-08-03T17:03:18.602Z,54.27
2022-08-03T17:05:47.038Z,54.58
2022-08-03T17:08:15.457Z,54.34
2022-08-03T17:10:41.974Z,54.73
2022-08-03T17:13:12.737Z,54.69
2022-08-03T17:16:00.698Z,54.64
2022-08-03T17:18:28.467Z,54.42
2022-08-03T17:20:54.938Z,54.71
2022-08-03T17:23:34.788Z,54.88
2022-08-03T17:26:04.789Z,55.10
2022-08-03T17:28:48.490Z,54.78
2022-08-03T17:31:23.122Z,54.86
2022-08-03T17:34:00.402Z,55.15
2022-08-03T17:36:47.501Z,55.04
2022-08-03T17:39:14.440Z,54.76
2022-08-03T17:41:50.111Z,55.24
2022-08-03T17:44:31.102Z,55.06
2022-08-03T17:47:04.169Z,55.52
2022-08-03T17:49:33.116Z,54.99
2022-08-03T17:52:09.961Z,55.43
2022-08-03T17:54:36.618Z,55.33
2022-08-03T17:57:27.231Z,55.21
2022-08-03T17:59:53.897Z,55.29
2022-08-03T18:02:29.878Z,55.34
2022-08-03T18:05:00.524Z,55.23
2022-08-03T18:07:41.115Z,55.32
2022-08-03T18:10:11.439Z,55.19
2022-08-03T18:12:42.606Z,55.25
2022-08-03T18:15:20.895Z,54.94
2022-08-03T18:17:58.145Z,54.61
2022-08-03T18:23:24.957Z,54.85
2022-08-03T18:26:04.895Z,54.80
2022-08-03T18:28:31.478Z,54.79
2022-08-03T18:30:58.856Z,55.04
2022-08-03T18:34:17.506Z,55.00
2022-08-03T18:38:59.463Z,55.68
2022-08-03T18:41:33.292Z,55.54
2022-08-03T18:44:09.018Z,55.46
2022-08-03T18:46:36.238Z,55.59
2022-08-03T18:49:08.125Z,55.79
2022-08-03T18:51:43.396Z,55.81
2022-08-03T18:54:51.785Z,55.94
2022-08-03T18:57:00.867Z,56.20
2022-08-03T18:59:30.391Z,55.60
2022-08-03T19:02:00.225Z,55.79
2022-08-03T19:04:30.424Z,56.00
2022-08-03T19:06:58.409Z,56.16
2022-08-03T19:09:27.745Z,55.91
2022-08-03T19:12:13.955Z,56.07
2022-08-03T19:14:41.733Z,56.10
2022-08-03T19:17:08.906Z,55.84
2022-08-03T19:19:44.265Z,56.11
2022-08-03T19:22:11.312Z,56.07
2022-08-03T19:24:37.777Z,56.39
2022-08-03T19:27:05.225Z,56.36
2022-08-03T19:29:58.797Z,56.28
2022-08-03T19:32:24.020Z,56.26
2022-08-03T19:34:50.776Z,56.25
2022-08-03T19:37:18.691Z,56.48
2022-08-03T19:39:56.686Z,56.70
2022-08-03T19:42:23.439Z,57.17
2022-08-03T19:44:49.936Z,56.98
2022-08-03T19:47:19.404Z,57.29
2022-08-03T19:49:59.968Z,57.61
2022-08-03T19:52:33.763Z,57.64
2022-08-03T19:55:00.249Z,57.57
2022-08-03T19:57:27.665Z,57.73
2022-08-03T19:59:55.979Z,57.45
2022-08-03T20:02:26.015Z,57.67
2022-08-03T20:04:53.858Z,57.84
2022-08-03T20:07:22.869Z,57.58
2022-08-03T20:09:54.710Z,58.02
2022-08-03T20:12:28.373Z,57.42
2022-08-03T20:14:55.204Z,58.42
2022-08-03T20:17:22.867Z,58.21
2022-08-03T20:20:09.390Z,58.13
2022-08-03T20:22:35.933Z,58.34
2022-08-03T20:25:05.673Z,58.97
2022-08-03T20:27:32.175Z,58.29
2022-08-03T20:30:20.384Z,58.12
2022-08-03T20:32:53.900Z,57.57
2022-08-03T20:35:21.727Z,57.56
2022-08-03T20:37:49.130Z,57.18
2022-08-03T20:40:16.457Z,57.52
2022-08-03T20:42:45.214Z,56.86
2022-08-03T20:46:00.205Z,57.18
2022-08-03T20:47:59.216Z,56.75
2022-08-03T20:50:25.771Z,56.44
2022-08-03T20:52:52.266Z,57.69
2022-08-03T20:55:18.747Z,57.65
2022-08-03T20:57:49.208Z,58.13
2022-08-03T21:00:19.258Z,57.82
2022-08-03T21:02:48.612Z,58.89
2022-08-03T21:05:16.026Z,58.22
2022-08-03T21:08:03.805Z,57.92
2022-08-03T21:10:29.009Z,57.43
2022-08-03T21:12:58.650Z,55.14
2022-08-03T21:13:05.681Z,54.74
2022-08-03T21:13:12.685Z,58.29
2022-08-03T21:16:02.359Z,58.49
2022-08-03T21:18:30.502Z,58.95
2022-08-03T21:20:58.257Z,59.61
2022-08-03T21:23:39.886Z,60.50
2022-08-03T21:26:13.137Z,59.42
2022-08-03T21:28:40.586Z,58.81
2022-08-03T21:31:07.099Z,59.23
2022-08-03T21:33:33.598Z,59.62
2022-08-03T21:36:00.116Z,59.79
2022-08-03T21:38:30.234Z,60.08
2022-08-03T21:40:56.890Z,60.71
2022-08-03T21:43:23.416Z,60.67
2022-08-03T21:45:49.930Z,60.77
2022-08-03T21:48:17.353Z,60.32
2022-08-03T21:50:44.807Z,60.90
2022-08-03T21:53:12.217Z,60.03
2022-08-03T21:55:39.653Z,60.80
2022-08-03T21:58:07.105Z,60.36
2022-08-03T22:00:33.583Z,60.02
2022-08-03T22:03:00.070Z,60.40
2022-08-03T22:05:43.939Z,60.80
2022-08-03T22:08:10.622Z,60.81
2022-08-03T22:10:37.129Z,60.18
2022-08-03T22:13:04.598Z,59.80
2022-08-03T22:15:31.110Z,59.68
2022-08-03T22:17:58.545Z,59.29
2022-08-03T22:20:25.974Z,59.63
2022-08-03T22:22:55.109Z,59.32
2022-08-03T22:25:22.715Z,59.44
2022-08-03T22:27:49.205Z,59.26
2022-08-03T22:30:15.703Z,59.07
2022-08-03T22:32:43.103Z,59.67
2022-08-03T22:35:09.609Z,59.50
2022-08-03T22:37:37.089Z,58.89
2022-08-03T22:40:03.602Z,59.41
2022-08-03T22:42:30.094Z,59.04
2022-08-03T22:44:57.503Z,58.78
2022-08-03T22:47:25.066Z,59.13
2022-08-03T22:50:31.794Z,59.33
2022-08-03T22:52:38.244Z,59.28
2022-08-03T22:55:05.689Z,58.54
2022-08-03T22:57:33.104Z,58.84
2022-08-03T23:00:00.537Z,58.58
2022-08-03T23:02:27.924Z,58.80
2022-08-03T23:04:55.334Z,58.47
2022-08-03T23:07:22.107Z,58.53
2022-08-03T23:09:49.774Z,58.28
2022-08-03T23:12:16.262Z,58.58
2022-08-03T23:14:42.762Z,58.59
2022-08-03T23:17:09.270Z,58.83
2022-08-03T23:19:44.568Z,58.48
2022-08-03T23:22:28.619Z,58.39
2022-08-03T23:24:57.946Z,58.19
2022-08-03T23:27:25.354Z,58.10
2022-08-03T23:29:52.791Z,58.64
2022-08-03T23:32:19.260Z,58.18
2022-08-03T23:34:45.755Z,58.15
2022-08-03T23:37:13.228Z,57.74
2022-08-03T23:39:40.631Z,57.97
2022-08-03T23:42:08.049Z,58.53
2022-08-03T23:44:35.465Z,58.06
2022-08-03T23:47:02.001Z,57.61
2022-08-03T23:49:29.399Z,57.62
2022-08-03T23:51:56.831Z,58.33
2022-08-03T23:54:23.353Z,58.44
2022-08-03T23:56:50.770Z,57.98
2022-08-03T23:59:18.204Z,57.38
